sensor_id;sensor_type;location;lat;lon;timestamp;P1;durP1;ratioP1;P2;durP2;ratioP2
23088;SDS011;11713;48.506;8.966;2022-12-07T00:03:36;10.47;;;5.93;;
23088;SDS011;11713;48.506;8.966;2022-12-07T00:06:04;7.33;;;5.70;;
23088;SDS011;11713;48.506;8.966;2022-12-07T00:08:31;8.93;;;5.50;;
23088;SDS011;11713;48.506;8.966;2022-12-07T00:11:05;7.50;;;5.97;;
23088;SDS011;11713;48.506;8.966;2022-12-07T00:13:33;8.60;;;5.80;;
23088;SDS011;11713;48.506;8.966;2022-12-07T00:16:01;9.00;;;6.07;;
23088;SDS011;11713;48.506;8.966;2022-12-07T00:18:31;8.27;;;5.70;;
23088;SDS011;11713;48.506;8.966;2022-12-07T00:21:04;9.63;;;6.47;;
23088;SDS011;11713;48.506;8.966;2022-12-07T00:23:32;8.83;;;6.13;;
23088;SDS011;11713;48.506;8.966;2022-12-07T00:26:09;8.40;;;5.80;;
23088;SDS011;11713;48.506;8.966;2022-12-07T00:28:37;8.67;;;5.83;;
23088;SDS011;11713;48.506;8.966;2022-12-07T00:31:04;10.40;;;6.17;;
23088;SDS011;11713;48.506;8.966;2022-12-07T00:33:32;8.43;;;5.77;;
23088;SDS011;11713;48.506;8.966;2022-12-07T00:35:59;8.10;;;5.53;;
23088;SDS011;11713;48.506;8.966;2022-12-07T00:38:27;7.30;;;5.20;;
23088;SDS011;11713;48.506;8.966;2022-12-07T00:40:55;8.03;;;5.60;;
23088;SDS011;11713;48.506;8.966;2022-12-07T00:43:26;6.87;;;5.73;;
23088;SDS011;11713;48.506;8.966;2022-12-07T00:45:52;7.33;;;5.83;;
23088;SDS011;11713;48.506;8.966;2022-12-07T00:48:19;8.57;;;5.37;;
23088;SDS011;11713;48.506;8.966;2022-12-07T00:50:45;9.10;;;5.57;;
23088;SDS011;11713;48.506;8.966;2022-12-07T00:53:11;8.23;;;5.70;;
23088;SDS011;11713;48.506;8.966;2022-12-07T00:55:37;6.90;;;5.00;;
23088;SDS011;11713;48.506;8.966;2022-12-07T00:58:03;7.23;;;5.23;;
23088;SDS011;11713;48.506;8.966;2022-12-07T01:03:36;8.20;;;5.47;;
23088;SDS011;11713;48.506;8.966;2022-12-07T01:06:03;7.83;;;5.33;;
23088;SDS011;11713;48.506;8.966;2022-12-07T01:08:29;7.73;;;5.90;;
23088;SDS011;11713;48.506;8.966;2022-12-07T01:11:16;7.30;;;5.27;;
23088;SDS011;11713;48.506;8.966;2022-12-07T01:13:44;7.40;;;5.33;;
23088;SDS011;11713;48.506;8.966;2022-12-07T01:16:11;8.43;;;5.53;;
23088;SDS011;11713;48.506;8.966;2022-12-07T01:18:39;6.63;;;5.47;;
23088;SDS011;11713;48.506;8.966;2022-12-07T01:21:10;6.33;;;5.13;;
23088;SDS011;11713;48.506;8.966;2022-12-07T01:23:38;9.13;;;5.43;;
23088;SDS011;11713;48.506;8.966;2022-12-07T01:26:05;7.10;;;5.77;;
23088;SDS011;11713;48.506;8.966;2022-12-07T01:28:32;7.70;;;5.57;;
23088;SDS011;11713;48.506;8.966;2022-12-07T01:31:02;8.03;;;5.57;;
23088;SDS011;11713;48.506;8.966;2022-12-07T01:33:35;6.77;;;5.30;;
23088;SDS011;11713;48.506;8.966;2022-12-07T01:36:12;8.50;;;5.63;;
23088;SDS011;11713;48.506;8.966;2022-12-07T01:38:43;7.63;;;5.53;;
23088;SDS011;11713;48.506;8.966;2022-12-07T01:41:09;7.70;;;5.50;;
23088;SDS011;11713;48.506;8.966;2022-12-07T01:43:36;6.87;;;5.73;;
23088;SDS011;11713;48.506;8.966;2022-12-07T01:46:22;8.00;;;5.40;;
23088;SDS011;11713;48.506;8.966;2022-12-07T01:48:48;6.27;;;5.13;;
23088;SDS011;11713;48.506;8.966;2022-12-07T01:51:14;7.33;;;5.33;;
23088;SDS011;11713;48.506;8.966;2022-12-07T01:53:42;7.10;;;5.30;;
23088;SDS011;11713;48.506;8.966;2022-12-07T01:56:11;6.83;;;5.73;;
23088;SDS011;11713;48.506;8.966;2022-12-07T01:58:42;7.83;;;5.67;;
23088;SDS011;11713;48.506;8.966;2022-12-07T02:01:08;9.13;;;5.87;;
23088;SDS011;11713;48.506;8.966;2022-12-07T02:03:36;7.47;;;5.57;;
23088;SDS011;11713;48.506;8.966;2022-12-07T02:06:07;9.03;;;5.57;;
23088;SDS011;11713;48.506;8.966;2022-12-07T02:08:35;9.33;;;6.20;;
23088;SDS011;11713;48.506;8.966;2022-12-07T02:11:02;8.67;;;5.90;;
23088;SDS011;11713;48.506;8.966;2022-12-07T02:13:32;7.20;;;5.43;;
23088;SDS011;11713;48.506;8.966;2022-12-07T02:21:52;9.60;;;6.30;;
23088;SDS011;11713;48.506;8.966;2022-12-07T02:24:44;7.97;;;6.00;;
23088;SDS011;11713;48.506;8.966;2022-12-07T02:30:15;6.97;;;5.37;;
23088;SDS011;11713;48.506;8.966;2022-12-07T02:35:35;7.53;;;5.33;;
23088;SDS011;11713;48.506;8.966;2022-12-07T02:44:03;9.83;;;6.17;;
23088;SDS011;11713;48.506;8.966;2022-12-07T02:46:37;11.17;;;7.03;;
23088;SDS011;11713;48.506;8.966;2022-12-07T02:49:08;9.60;;;6.70;;
23088;SDS011;11713;48.506;8.966;2022-12-07T02:51:38;10.87;;;7.33;;
23088;SDS011;11713;48.506;8.966;2022-12-07T02:54:16;8.87;;;6.00;;
23088;SDS011;11713;48.506;8.966;2022-12-07T03:07:41;6.77;;;5.53;;
23088;SDS011;11713;48.506;8.966;2022-12-07T03:10:28;9.23;;;6.50;;
23088;SDS011;11713;48.506;8.966;2022-12-07T03:13:19;8.87;;;6.30;;
23088;SDS011;11713;48.506;8.966;2022-12-07T03:15:47;6.20;;;4.83;;
23088;SDS011;11713;48.506;8.966;2022-12-07T03:18:22;6.07;;;4.00;;
23088;SDS011;11713;48.506;8.966;2022-12-07T03:20:51;7.47;;;5.30;;
23088;SDS011;11713;48.506;8.966;2022-12-07T03:23:20;6.27;;;4.60;;
23088;SDS011;11713;48.506;8.966;2022-12-07T03:25:49;7.13;;;4.87;;
23088;SDS011;11713;48.506;8.966;2022-12-07T03:28:20;6.30;;;4.67;;
23088;SDS011;11713;48.506;8.966;2022-12-07T03:30:51;7.20;;;5.10;;
23088;SDS011;11713;48.506;8.966;2022-12-07T03:36:00;7.53;;;5.23;;
23088;SDS011;11713;48.506;8.966;2022-12-07T03:38:44;7.30;;;5.47;;
23088;SDS011;11713;48.506;8.966;2022-12-07T03:41:22;8.97;;;6.30;;
23088;SDS011;11713;48.506;8.966;2022-12-07T03:43:50;7.73;;;5.83;;
23088;SDS011;11713;48.506;8.966;2022-12-07T03:56:57;9.50;;;6.20;;
23088;SDS011;11713;48.506;8.966;2022-12-07T03:59:23;9.23;;;6.03;;
23088;SDS011;11713;48.506;8.966;2022-12-07T04:01:52;8.27;;;5.77;;
23088;SDS011;11713;48.506;8.966;2022-12-07T04:04:20;6.93;;;5.07;;
23088;SDS011;11713;48.506;8.966;2022-12-07T04:06:46;7.87;;;5.70;;
23088;SDS011;11713;48.506;8.966;2022-12-07T04:09:12;6.97;;;5.40;;
23088;SDS011;11713;48.506;8.966;2022-12-07T04:11:39;7.67;;;5.47;;
23088;SDS011;11713;48.506;8.966;2022-12-07T04:14:05;9.20;;;6.53;;
23088;SDS011;11713;48.506;8.966;2022-12-07T04:16:46;8.67;;;6.30;;
23088;SDS011;11713;48.506;8.966;2022-12-07T04:19:16;7.07;;;5.33;;
23088;SDS011;11713;48.506;8.966;2022-12-07T04:21:43;6.90;;;5.13;;
23088;SDS011;11713;48.506;8.966;2022-12-07T04:24:10;8.37;;;6.23;;
23088;SDS011;11713;48.506;8.966;2022-12-07T04:26:37;8.17;;;6.20;;
23088;SDS011;11713;48.506;8.966;2022-12-07T04:29:03;8.27;;;6.23;;
23088;SDS011;11713;48.506;8.966;2022-12-07T04:31:29;7.73;;;5.40;;
23088;SDS011;11713;48.506;8.966;2022-12-07T04:33:55;8.47;;;5.93;;
23088;SDS011;11713;48.506;8.966;2022-12-07T04:36:21;8.20;;;6.20;;
23088;SDS011;11713;48.506;8.966;2022-12-07T04:38:47;9.33;;;5.80;;
23088;SDS011;11713;48.506;8.966;2022-12-07T04:41:13;9.87;;;6.83;;
23088;SDS011;11713;48.506;8.966;2022-12-07T04:43:39;11.60;;;7.80;;
23088;SDS011;11713;48.506;8.966;2022-12-07T04:46:04;15.10;;;8.70;;
23088;SDS011;11713;48.506;8.966;2022-12-07T04:48:31;20.13;;;9.40;;
23088;SDS011;11713;48.506;8.966;2022-12-07T04:50:56;15.43;;;8.57;;
23088;SDS011;11713;48.506;8.966;2022-12-07T04:53:22;9.97;;;6.60;;
23088;SDS011;11713;48.506;8.966;2022-12-07T04:55:48;8.70;;;6.57;;
23088;SDS011;11713;48.506;8.966;2022-12-07T04:58:14;9.67;;;6.97;;
23088;SDS011;11713;48.506;8.966;2022-12-07T05:00:40;10.47;;;6.67;;
23088;SDS011;11713;48.506;8.966;2022-12-07T05:03:06;10.80;;;6.97;;
23088;SDS011;11713;48.506;8.966;2022-12-07T05:05:32;8.47;;;6.20;;
23088;SDS011;11713;48.506;8.966;2022-12-07T05:07:58;10.13;;;7.17;;
23088;SDS011;11713;48.506;8.966;2022-12-07T05:10:24;11.13;;;7.90;;
23088;SDS011;11713;48.506;8.966;2022-12-07T05:12:50;14.37;;;9.17;;
23088;SDS011;11713;48.506;8.966;2022-12-07T05:15:16;20.53;;;12.03;;
23088;SDS011;11713;48.506;8.966;2022-12-07T05:17:42;16.37;;;10.93;;
23088;SDS011;11713;48.506;8.966;2022-12-07T05:20:08;15.43;;;9.77;;
23088;SDS011;11713;48.506;8.966;2022-12-07T05:22:34;11.23;;;8.30;;
23088;SDS011;11713;48.506;8.966;2022-12-07T05:25:00;10.20;;;7.37;;
23088;SDS011;11713;48.506;8.966;2022-12-07T05:27:26;11.70;;;7.20;;
23088;SDS011;11713;48.506;8.966;2022-12-07T05:29:52;9.13;;;6.70;;
23088;SDS011;11713;48.506;8.966;2022-12-07T05:32:18;9.33;;;6.63;;
23088;SDS011;11713;48.506;8.966;2022-12-07T05:34:44;10.20;;;6.60;;
23088;SDS011;11713;48.506;8.966;2022-12-07T05:37:10;11.77;;;7.93;;
23088;SDS011;11713;48.506;8.966;2022-12-07T05:39:36;11.93;;;7.67;;
23088;SDS011;11713;48.506;8.966;2022-12-07T05:42:03;11.60;;;7.47;;
23088;SDS011;11713;48.506;8.966;2022-12-07T05:44:42;10.10;;;7.03;;
23088;SDS011;11713;48.506;8.966;2022-12-07T05:47:09;10.67;;;7.33;;
23088;SDS011;11713;48.506;8.966;2022-12-07T05:49:36;10.33;;;6.63;;
23088;SDS011;11713;48.506;8.966;2022-12-07T05:52:02;10.90;;;6.90;;
23088;SDS011;11713;48.506;8.966;2022-12-07T05:54:29;10.20;;;7.47;;
23088;SDS011;11713;48.506;8.966;2022-12-07T05:56:55;9.77;;;7.37;;
23088;SDS011;11713;48.506;8.966;2022-12-07T05:59:21;13.57;;;9.10;;
23088;SDS011;11713;48.506;8.966;2022-12-07T06:01:47;17.87;;;11.57;;
23088;SDS011;11713;48.506;8.966;2022-12-07T06:04:23;17.23;;;10.70;;
23088;SDS011;11713;48.506;8.966;2022-12-07T06:06:50;14.10;;;8.73;;
23088;SDS011;11713;48.506;8.966;2022-12-07T06:09:17;12.80;;;9.07;;
23088;SDS011;11713;48.506;8.966;2022-12-07T06:11:43;13.30;;;8.53;;
23088;SDS011;11713;48.506;8.966;2022-12-07T06:14:28;12.60;;;9.13;;
23088;SDS011;11713;48.506;8.966;2022-12-07T06:16:54;10.27;;;7.60;;
23088;SDS011;11713;48.506;8.966;2022-12-07T06:19:20;11.50;;;7.37;;
23088;SDS011;11713;48.506;8.966;2022-12-07T06:21:46;10.57;;;7.53;;
23088;SDS011;11713;48.506;8.966;2022-12-07T06:24:12;12.80;;;8.00;;
23088;SDS011;11713;48.506;8.966;2022-12-07T06:26:39;15.27;;;10.63;;
23088;SDS011;11713;48.506;8.966;2022-12-07T06:29:05;17.53;;;12.80;;
23088;SDS011;11713;48.506;8.966;2022-12-07T06:31:31;11.23;;;8.27;;
23088;SDS011;11713;48.506;8.966;2022-12-07T06:34:01;11.50;;;8.53;;
23088;SDS011;11713;48.506;8.966;2022-12-07T06:36:29;13.37;;;8.70;;
23088;SDS011;11713;48.506;8.966;2022-12-07T06:38:55;13.67;;;8.93;;
23088;SDS011;11713;48.506;8.966;2022-12-07T06:41:21;11.57;;;8.17;;
23088;SDS011;11713;48.506;8.966;2022-12-07T06:43:47;15.03;;;8.50;;
23088;SDS011;11713;48.506;8.966;2022-12-07T06:46:14;12.13;;;8.23;;
23088;SDS011;11713;48.506;8.966;2022-12-07T06:48:42;12.20;;;8.27;;
23088;SDS011;11713;48.506;8.966;2022-12-07T06:51:08;12.17;;;7.60;;
23088;SDS011;11713;48.506;8.966;2022-12-07T06:53:35;11.70;;;7.93;;
23088;SDS011;11713;48.506;8.966;2022-12-07T06:56:03;12.10;;;7.90;;
23088;SDS011;11713;48.506;8.966;2022-12-07T06:58:30;11.63;;;7.63;;
23088;SDS011;11713;48.506;8.966;2022-12-07T07:00:56;13.23;;;8.97;;
23088;SDS011;11713;48.506;8.966;2022-12-07T07:03:22;11.27;;;7.50;;
23088;SDS011;11713;48.506;8.966;2022-12-07T07:05:48;12.97;;;8.13;;
23088;SDS011;11713;48.506;8.966;2022-12-07T07:08:14;13.37;;;8.77;;
23088;SDS011;11713;48.506;8.966;2022-12-07T07:10:40;15.47;;;9.20;;
23088;SDS011;11713;48.506;8.966;2022-12-07T07:13:06;10.37;;;7.63;;
23088;SDS011;11713;48.506;8.966;2022-12-07T07:15:32;11.83;;;8.07;;
23088;SDS011;11713;48.506;8.966;2022-12-07T07:17:59;12.67;;;8.33;;
23088;SDS011;11713;48.506;8.966;2022-12-07T07:20:26;14.20;;;8.60;;
23088;SDS011;11713;48.506;8.966;2022-12-07T07:22:55;11.53;;;7.93;;
23088;SDS011;11713;48.506;8.966;2022-12-07T07:25:21;11.53;;;8.03;;
23088;SDS011;11713;48.506;8.966;2022-12-07T07:27:47;12.77;;;9.00;;
23088;SDS011;11713;48.506;8.966;2022-12-07T07:30:13;14.57;;;9.33;;
23088;SDS011;11713;48.506;8.966;2022-12-07T07:32:39;14.33;;;8.70;;
23088;SDS011;11713;48.506;8.966;2022-12-07T07:35:05;13.03;;;8.93;;
23088;SDS011;11713;48.506;8.966;2022-12-07T07:37:31;13.73;;;9.03;;
23088;SDS011;11713;48.506;8.966;2022-12-07T07:39:57;14.33;;;9.57;;
23088;SDS011;11713;48.506;8.966;2022-12-07T07:42:23;14.87;;;10.23;;
23088;SDS011;11713;48.506;8.966;2022-12-07T07:44:48;15.90;;;10.17;;
23088;SDS011;11713;48.506;8.966;2022-12-07T07:47:14;13.40;;;9.30;;
23088;SDS011;11713;48.506;8.966;2022-12-07T07:49:40;13.60;;;8.97;;
23088;SDS011;11713;48.506;8.966;2022-12-07T07:52:06;14.03;;;10.07;;
23088;SDS011;11713;48.506;8.966;2022-12-07T07:54:32;15.87;;;10.30;;
23088;SDS011;11713;48.506;8.966;2022-12-07T07:56:58;15.20;;;10.73;;
23088;SDS011;11713;48.506;8.966;2022-12-07T07:59:24;17.60;;;10.10;;
23088;SDS011;11713;48.506;8.966;2022-12-07T08:01:50;15.00;;;10.30;;
23088;SDS011;11713;48.506;8.966;2022-12-07T08:04:16;17.27;;;10.57;;
23088;SDS011;11713;48.506;8.966;2022-12-07T08:06:42;14.97;;;10.13;;
23088;SDS011;11713;48.506;8.966;2022-12-07T08:09:08;12.83;;;9.17;;
23088;SDS011;11713;48.506;8.966;2022-12-07T08:11:34;14.17;;;10.37;;
23088;SDS011;11713;48.506;8.966;2022-12-07T08:14:02;14.77;;;9.67;;
23088;SDS011;11713;48.506;8.966;2022-12-07T08:16:28;14.53;;;9.63;;
23088;SDS011;11713;48.506;8.966;2022-12-07T08:18:54;15.10;;;10.10;;
23088;SDS011;11713;48.506;8.966;2022-12-07T08:21:20;13.53;;;9.77;;
23088;SDS011;11713;48.506;8.966;2022-12-07T08:23:46;15.20;;;9.73;;
23088;SDS011;11713;48.506;8.966;2022-12-07T08:26:13;14.33;;;9.07;;
23088;SDS011;11713;48.506;8.966;2022-12-07T08:28:41;12.67;;;8.47;;
23088;SDS011;11713;48.506;8.966;2022-12-07T08:31:09;12.27;;;9.20;;
23088;SDS011;11713;48.506;8.966;2022-12-07T08:33:39;14.77;;;10.30;;
23088;SDS011;11713;48.506;8.966;2022-12-07T08:36:06;17.77;;;10.37;;
23088;SDS011;11713;48.506;8.966;2022-12-07T08:38:34;20.33;;;12.93;;
23088;SDS011;11713;48.506;8.966;2022-12-07T08:41:01;15.73;;;10.87;;
23088;SDS011;11713;48.506;8.966;2022-12-07T08:43:28;16.80;;;11.17;;
23088;SDS011;11713;48.506;8.966;2022-12-07T08:48:28;30.17;;;18.60;;
23088;SDS011;11713;48.506;8.966;2022-12-07T08:50:55;18.00;;;12.33;;
23088;SDS011;11713;48.506;8.966;2022-12-07T08:53:21;11.93;;;9.30;;
23088;SDS011;11713;48.506;8.966;2022-12-07T08:55:47;13.67;;;8.77;;
23088;SDS011;11713;48.506;8.966;2022-12-07T08:58:14;12.97;;;8.60;;
23088;SDS011;11713;48.506;8.966;2022-12-07T09:00:40;13.10;;;9.00;;
23088;SDS011;11713;48.506;8.966;2022-12-07T09:03:06;12.87;;;8.97;;
23088;SDS011;11713;48.506;8.966;2022-12-07T09:05:32;12.97;;;9.17;;
23088;SDS011;11713;48.506;8.966;2022-12-07T09:08:00;11.43;;;7.93;;
23088;SDS011;11713;48.506;8.966;2022-12-07T09:10:27;12.33;;;8.93;;
23088;SDS011;11713;48.506;8.966;2022-12-07T09:12:53;13.20;;;8.40;;
23088;SDS011;11713;48.506;8.966;2022-12-07T09:15:19;14.07;;;8.67;;
23088;SDS011;11713;48.506;8.966;2022-12-07T09:17:45;14.20;;;9.60;;
23088;SDS011;11713;48.506;8.966;2022-12-07T09:20:11;14.40;;;9.77;;
23088;SDS011;11713;48.506;8.966;2022-12-07T09:22:37;15.30;;;10.67;;
23088;SDS011;11713;48.506;8.966;2022-12-07T09:25:03;15.47;;;11.10;;
23088;SDS011;11713;48.506;8.966;2022-12-07T09:27:29;16.33;;;10.53;;
23088;SDS011;11713;48.506;8.966;2022-12-07T09:29:56;15.30;;;10.03;;
23088;SDS011;11713;48.506;8.966;2022-12-07T09:32:21;15.93;;;10.60;;
23088;SDS011;11713;48.506;8.966;2022-12-07T09:34:48;16.73;;;10.27;;
23088;SDS011;11713;48.506;8.966;2022-12-07T09:37:14;15.43;;;10.13;;
23088;SDS011;11713;48.506;8.966;2022-12-07T09:39:40;14.43;;;9.80;;
23088;SDS011;11713;48.506;8.966;2022-12-07T09:42:06;15.73;;;9.80;;
23088;SDS011;11713;48.506;8.966;2022-12-07T09:44:33;15.30;;;8.73;;
23088;SDS011;11713;48.506;8.966;2022-12-07T09:47:01;12.57;;;8.57;;
23088;SDS011;11713;48.506;8.966;2022-12-07T09:49:28;11.93;;;8.03;;
23088;SDS011;11713;48.506;8.966;2022-12-07T09:54:39;10.00;;;7.07;;
23088;SDS011;11713;48.506;8.966;2022-12-07T09:57:10;10.20;;;6.77;;
23088;SDS011;11713;48.506;8.966;2022-12-07T09:59:37;10.00;;;6.53;;
23088;SDS011;11713;48.506;8.966;2022-12-07T10:02:25;10.53;;;7.10;;
23088;SDS011;11713;48.506;8.966;2022-12-07T10:04:55;10.60;;;7.33;;
23088;SDS011;11713;48.506;8.966;2022-12-07T10:07:23;13.43;;;8.53;;
23088;SDS011;11713;48.506;8.966;2022-12-07T10:09:49;11.63;;;7.70;;
23088;SDS011;11713;48.506;8.966;2022-12-07T10:12:15;11.80;;;7.53;;
23088;SDS011;11713;48.506;8.966;2022-12-07T10:14:54;12.27;;;7.57;;
23088;SDS011;11713;48.506;8.966;2022-12-07T10:17:37;11.63;;;7.90;;
23088;SDS011;11713;48.506;8.966;2022-12-07T10:20:20;9.77;;;7.27;;
23088;SDS011;11713;48.506;8.966;2022-12-07T10:23:01;11.83;;;7.90;;
23088;SDS011;11713;48.506;8.966;2022-12-07T10:25:31;10.13;;;6.87;;
23088;SDS011;11713;48.506;8.966;2022-12-07T10:30:33;8.67;;;6.47;;
23088;SDS011;11713;48.506;8.966;2022-12-07T10:33:29;8.87;;;6.07;;
23088;SDS011;11713;48.506;8.966;2022-12-07T10:36:00;8.27;;;6.10;;
23088;SDS011;11713;48.506;8.966;2022-12-07T10:38:44;9.67;;;6.67;;
23088;SDS011;11713;48.506;8.966;2022-12-07T10:41:11;9.03;;;6.30;;
23088;SDS011;11713;48.506;8.966;2022-12-07T10:43:37;8.67;;;6.87;;
23088;SDS011;11713;48.506;8.966;2022-12-07T11:05:28;12.13;;;6.07;;
23088;SDS011;11713;48.506;8.966;2022-12-07T11:13:58;8.10;;;5.63;;
23088;SDS011;11713;48.506;8.966;2022-12-07T11:24:17;8.83;;;6.07;;
23088;SDS011;11713;48.506;8.966;2022-12-07T11:32:39;7.47;;;5.80;;
23088;SDS011;11713;48.506;8.966;2022-12-07T11:41:05;8.17;;;5.43;;
23088;SDS011;11713;48.506;8.966;2022-12-07T11:43:46;8.70;;;5.77;;
23088;SDS011;11713;48.506;8.966;2022-12-07T11:46:19;8.07;;;5.93;;
23088;SDS011;11713;48.506;8.966;2022-12-07T11:48:52;6.83;;;5.57;;
23088;SDS011;11713;48.506;8.966;2022-12-07T11:51:29;8.03;;;6.20;;
23088;SDS011;11713;48.506;8.966;2022-12-07T11:54:03;8.83;;;5.80;;
23088;SDS011;11713;48.506;8.966;2022-12-07T11:56:37;10.53;;;6.13;;
23088;SDS011;11713;48.506;8.966;2022-12-07T12:01:41;8.53;;;5.47;;
23088;SDS011;11713;48.506;8.966;2022-12-07T12:04:42;9.60;;;6.10;;
23088;SDS011;11713;48.506;8.966;2022-12-07T12:07:39;7.17;;;5.47;;
23088;SDS011;11713;48.506;8.966;2022-12-07T12:10:15;14.30;;;6.23;;
23088;SDS011;11713;48.506;8.966;2022-12-07T12:18:50;9.13;;;5.93;;
23088;SDS011;11713;48.506;8.966;2022-12-07T12:21:15;8.23;;;5.60;;
23088;SDS011;11713;48.506;8.966;2022-12-07T12:24:05;7.87;;;5.50;;
23088;SDS011;11713;48.506;8.966;2022-12-07T12:26:39;8.83;;;5.93;;
23088;SDS011;11713;48.506;8.966;2022-12-07T12:29:20;12.10;;;6.47;;
23088;SDS011;11713;48.506;8.966;2022-12-07T12:38:20;9.60;;;6.70;;
23088;SDS011;11713;48.506;8.966;2022-12-07T12:40:44;7.67;;;5.57;;
23088;SDS011;11713;48.506;8.966;2022-12-07T12:51:44;8.13;;;6.23;;
23088;SDS011;11713;48.506;8.966;2022-12-07T12:54:30;6.50;;;5.17;;
23088;SDS011;11713;48.506;8.966;2022-12-07T12:59:29;9.73;;;5.63;;
23088;SDS011;11713;48.506;8.966;2022-12-07T13:12:59;8.10;;;5.30;;
23088;SDS011;11713;48.506;8.966;2022-12-07T13:28:50;9.87;;;6.00;;
23088;SDS011;11713;48.506;8.966;2022-12-07T13:36:58;3.60;;;2.90;;
23088;SDS011;11713;48.506;8.966;2022-12-07T13:39:35;2.20;;;1.90;;
23088;SDS011;11713;48.506;8.966;2022-12-07T13:42:25;5.60;;;2.20;;
23088;SDS011;11713;48.506;8.966;2022-12-07T13:45:00;2.80;;;2.20;;
23088;SDS011;11713;48.506;8.966;2022-12-07T13:47:48;2.20;;;2.00;;
23088;SDS011;11713;48.506;8.966;2022-12-07T13:52:56;2.90;;;2.20;;
23088;SDS011;11713;48.506;8.966;2022-12-07T13:55:28;3.47;;;2.63;;
23088;SDS011;11713;48.506;8.966;2022-12-07T13:57:55;2.90;;;2.37;;
23088;SDS011;11713;48.506;8.966;2022-12-07T14:00:22;5.83;;;4.53;;
23088;SDS011;11713;48.506;8.966;2022-12-07T14:05:38;9.23;;;5.30;;
23088;SDS011;11713;48.506;8.966;2022-12-07T14:10:36;9.63;;;5.57;;
23088;SDS011;11713;48.506;8.966;2022-12-07T14:13:35;6.57;;;5.50;;
23088;SDS011;11713;48.506;8.966;2022-12-07T14:16:28;9.23;;;7.00;;
23088;SDS011;11713;48.506;8.966;2022-12-07T14:19:02;12.17;;;7.10;;
23088;SDS011;11713;48.506;8.966;2022-12-07T14:21:30;8.43;;;6.50;;
23088;SDS011;11713;48.506;8.966;2022-12-07T14:24:09;9.00;;;6.47;;
23088;SDS011;11713;48.506;8.966;2022-12-07T14:26:41;8.53;;;6.10;;
23088;SDS011;11713;48.506;8.966;2022-12-07T14:31:53;8.77;;;5.80;;
23088;SDS011;11713;48.506;8.966;2022-12-07T14:34:20;8.30;;;5.53;;
23088;SDS011;11713;48.506;8.966;2022-12-07T14:36:47;7.73;;;5.63;;
23088;SDS011;11713;48.506;8.966;2022-12-07T14:39:13;10.03;;;6.30;;
23088;SDS011;11713;48.506;8.966;2022-12-07T14:41:39;7.47;;;5.20;;
23088;SDS011;11713;48.506;8.966;2022-12-07T14:44:18;7.87;;;5.47;;
23088;SDS011;11713;48.506;8.966;2022-12-07T14:46:48;6.50;;;4.77;;
23088;SDS011;11713;48.506;8.966;2022-12-07T14:49:16;5.67;;;4.13;;
23088;SDS011;11713;48.506;8.966;2022-12-07T14:51:42;6.17;;;4.20;;
23088;SDS011;11713;48.506;8.966;2022-12-07T14:54:15;6.03;;;4.00;;
23088;SDS011;11713;48.506;8.966;2022-12-07T14:56:44;5.47;;;3.53;;
23088;SDS011;11713;48.506;8.966;2022-12-07T14:59:11;4.43;;;3.30;;
23088;SDS011;11713;48.506;8.966;2022-12-07T15:01:37;3.77;;;3.10;;
23088;SDS011;11713;48.506;8.966;2022-12-07T15:04:03;4.63;;;3.03;;
23088;SDS011;11713;48.506;8.966;2022-12-07T15:06:29;3.67;;;2.80;;
23088;SDS011;11713;48.506;8.966;2022-12-07T15:08:57;4.13;;;2.97;;
23088;SDS011;11713;48.506;8.966;2022-12-07T15:11:22;4.23;;;2.70;;
23088;SDS011;11713;48.506;8.966;2022-12-07T15:13:48;3.60;;;3.03;;
23088;SDS011;11713;48.506;8.966;2022-12-07T15:16:33;3.33;;;2.70;;
23088;SDS011;11713;48.506;8.966;2022-12-07T15:19:00;3.40;;;2.77;;
23088;SDS011;11713;48.506;8.966;2022-12-07T15:21:26;2.80;;;2.50;;
23088;SDS011;11713;48.506;8.966;2022-12-07T15:23:52;3.20;;;2.73;;
23088;SDS011;11713;48.506;8.966;2022-12-07T15:26:19;4.00;;;2.73;;
23088;SDS011;11713;48.506;8.966;2022-12-07T15:28:45;3.37;;;2.60;;
23088;SDS011;11713;48.506;8.966;2022-12-07T15:31:11;6.83;;;5.63;;
23088;SDS011;11713;48.506;8.966;2022-12-07T15:33:38;8.90;;;6.80;;
23088;SDS011;11713;48.506;8.966;2022-12-07T15:36:04;8.20;;;7.20;;
23088;SDS011;11713;48.506;8.966;2022-12-07T15:38:30;7.37;;;6.30;;
23088;SDS011;11713;48.506;8.966;2022-12-07T15:40:56;4.87;;;4.30;;
23088;SDS011;11713;48.506;8.966;2022-12-07T15:43:22;3.63;;;3.33;;
23088;SDS011;11713;48.506;8.966;2022-12-07T15:46:06;21.13;;;9.80;;
23088;SDS011;11713;48.506;8.966;2022-12-07T15:48:32;16.83;;;8.80;;
23088;SDS011;11713;48.506;8.966;2022-12-07T15:51:08;12.93;;;7.13;;
23088;SDS011;11713;48.506;8.966;2022-12-07T15:53:34;8.90;;;5.67;;
23088;SDS011;11713;48.506;8.966;2022-12-07T15:56:00;5.47;;;4.30;;
23088;SDS011;11713;48.506;8.966;2022-12-07T15:58:26;6.40;;;4.23;;
23088;SDS011;11713;48.506;8.966;2022-12-07T16:00:52;6.83;;;4.10;;
23088;SDS011;11713;48.506;8.966;2022-12-07T16:03:18;5.83;;;4.43;;
23088;SDS011;11713;48.506;8.966;2022-12-07T16:05:50;6.33;;;4.20;;
23088;SDS011;11713;48.506;8.966;2022-12-07T16:08:18;5.90;;;4.00;;
23088;SDS011;11713;48.506;8.966;2022-12-07T16:10:44;4.80;;;3.83;;
23088;SDS011;11713;48.506;8.966;2022-12-07T16:13:10;7.17;;;4.20;;
23088;SDS011;11713;48.506;8.966;2022-12-07T16:15:40;4.20;;;3.23;;
23088;SDS011;11713;48.506;8.966;2022-12-07T16:18:06;4.43;;;3.90;;
23088;SDS011;11713;48.506;8.966;2022-12-07T16:20:32;6.20;;;4.07;;
23088;SDS011;11713;48.506;8.966;2022-12-07T16:22:58;6.80;;;5.10;;
23088;SDS011;11713;48.506;8.966;2022-12-07T16:25:24;7.57;;;6.77;;
23088;SDS011;11713;48.506;8.966;2022-12-07T16:27:51;5.30;;;4.50;;
23088;SDS011;11713;48.506;8.966;2022-12-07T16:30:17;4.43;;;3.60;;
23088;SDS011;11713;48.506;8.966;2022-12-07T16:32:43;4.93;;;4.10;;
23088;SDS011;11713;48.506;8.966;2022-12-07T16:35:10;9.83;;;7.20;;
23088;SDS011;11713;48.506;8.966;2022-12-07T16:37:37;6.10;;;4.60;;
23088;SDS011;11713;48.506;8.966;2022-12-07T16:40:03;5.77;;;4.57;;
23088;SDS011;11713;48.506;8.966;2022-12-07T16:42:33;6.23;;;4.43;;
23088;SDS011;11713;48.506;8.966;2022-12-07T16:44:59;7.40;;;3.60;;
23088;SDS011;11713;48.506;8.966;2022-12-07T16:47:26;4.67;;;3.70;;
23088;SDS011;11713;48.506;8.966;2022-12-07T16:49:52;5.13;;;3.93;;
23088;SDS011;11713;48.506;8.966;2022-12-07T16:52:19;5.77;;;4.73;;
23088;SDS011;11713;48.506;8.966;2022-12-07T16:54:46;13.23;;;8.67;;
23088;SDS011;11713;48.506;8.966;2022-12-07T16:57:15;6.43;;;4.97;;
23088;SDS011;11713;48.506;8.966;2022-12-07T17:02:35;7.80;;;4.23;;
23088;SDS011;11713;48.506;8.966;2022-12-07T17:07:54;7.87;;;5.07;;
23088;SDS011;11713;48.506;8.966;2022-12-07T17:10:42;7.93;;;4.40;;
23088;SDS011;11713;48.506;8.966;2022-12-07T17:13:16;7.77;;;4.83;;
23088;SDS011;11713;48.506;8.966;2022-12-07T17:16:02;6.70;;;4.47;;
23088;SDS011;11713;48.506;8.966;2022-12-07T17:18:35;6.83;;;4.60;;
23088;SDS011;11713;48.506;8.966;2022-12-07T17:21:05;7.90;;;4.60;;
23088;SDS011;11713;48.506;8.966;2022-12-07T17:23:50;7.47;;;5.57;;
23088;SDS011;11713;48.506;8.966;2022-12-07T17:26:17;6.30;;;5.13;;
23088;SDS011;11713;48.506;8.966;2022-12-07T17:28:48;6.73;;;5.00;;
23088;SDS011;11713;48.506;8.966;2022-12-07T17:33:59;6.23;;;5.00;;
23088;SDS011;11713;48.506;8.966;2022-12-07T17:36:26;6.53;;;4.60;;
23088;SDS011;11713;48.506;8.966;2022-12-07T17:45:06;6.90;;;5.10;;
23088;SDS011;11713;48.506;8.966;2022-12-07T17:47:35;10.63;;;5.90;;
23088;SDS011;11713;48.506;8.966;2022-12-07T17:50:02;7.23;;;5.43;;
23088;SDS011;11713;48.506;8.966;2022-12-07T17:52:29;9.77;;;6.00;;
23088;SDS011;11713;48.506;8.966;2022-12-07T17:55:13;7.80;;;5.50;;